createdAt,value
2018-05-21T00:00:26.354Z,68.64
2018-05-21T00:00:57.673Z,68.80
2018-05-21T00:01:29.034Z,68.78
2018-05-21T00:02:00.315Z,68.83
2018-05-21T00:02:31.632Z,68.96
2018-05-21T00:03:03.819Z,69.02
2018-05-21T00:03:35.178Z,69.20
2018-05-21T00:04:06.623Z,69.34
2018-05-21T00:04:39.695Z,69.50
2018-05-21T00:05:13.890Z,69.49
2018-05-21T00:05:45.532Z,69.57
2018-05-21T00:06:16.884Z,69.61
2018-05-21T00:06:48.339Z,69.61
2018-05-21T00:07:19.603Z,69.55
2018-05-21T00:07:50.980Z,69.50
2018-05-21T00:08:22.330Z,69.60
2018-05-21T00:08:54.412Z,69.56
2018-05-21T00:09:25.702Z,69.63
2018-05-21T00:09:57.043Z,69.70
2018-05-21T00:10:28.344Z,69.49
2018-05-21T00:10:59.593Z,69.58
2018-05-21T00:11:30.805Z,69.44
2018-05-21T00:12:02.019Z,69.50
2018-05-21T00:12:33.236Z,69.44
2018-05-21T00:13:04.455Z,69.42
2018-05-21T00:13:39.576Z,69.23
2018-05-21T00:14:11.831Z,69.05
2018-05-21T00:14:43.135Z,69.04
2018-05-21T00:15:14.604Z,69.13
2018-05-21T00:15:46.098Z,69.10
2018-05-21T00:16:18.446Z,69.21
2018-05-21T00:16:49.795Z,69.15
2018-05-21T00:17:21.196Z,69.33
2018-05-21T00:17:53.374Z,69.23
2018-05-21T00:18:24.619Z,69.22
2018-05-21T00:18:56.160Z,69.37
2018-05-21T00:19:27.491Z,69.52
2018-05-21T00:20:00.389Z,69.58
2018-05-21T00:20:32.426Z,69.67
2018-05-21T00:21:04.364Z,69.57
2018-05-21T00:21:35.707Z,69.39
2018-05-21T00:22:06.973Z,69.37
2018-05-21T00:22:38.264Z,69.13
2018-05-21T00:23:09.464Z,69.02
2018-05-21T00:23:40.724Z,68.98
2018-05-21T00:24:11.933Z,68.95
2018-05-21T00:24:43.141Z,68.67
2018-05-21T00:25:14.349Z,68.36
2018-05-21T00:25:45.560Z,68.50
2018-05-21T00:26:16.802Z,68.36
2018-05-21T00:26:48.015Z,68.31
2018-05-21T00:27:19.253Z,68.25
2018-05-21T00:27:50.457Z,68.45
2018-05-21T00:28:21.716Z,68.42
2018-05-21T00:28:52.936Z,68.48
2018-05-21T00:29:24.145Z,68.63
2018-05-21T00:29:55.403Z,68.56
2018-05-21T00:30:26.612Z,68.64
2018-05-21T00:30:57.833Z,68.69
2018-05-21T00:31:29.048Z,68.81
2018-05-21T00:32:00.261Z,68.80
2018-05-21T00:32:31.518Z,68.82
2018-05-21T00:33:02.734Z,68.85
2018-05-21T00:33:33.945Z,68.87
2018-05-21T00:34:05.187Z,68.79
2018-05-21T00:34:36.410Z,68.99
2018-05-21T00:35:07.667Z,69.05
2018-05-21T00:35:38.896Z,69.06
2018-05-21T00:36:10.117Z,69.04
2018-05-21T00:36:41.328Z,69.12
2018-05-21T00:37:12.533Z,69.14
2018-05-21T00:37:43.750Z,69.19
2018-05-21T00:38:14.944Z,68.97
2018-05-21T00:38:46.149Z,68.89
2018-05-21T00:39:17.358Z,69.08
2018-05-21T00:39:48.565Z,69.25
2018-05-21T00:40:19.825Z,69.13
2018-05-21T00:40:51.037Z,69.11
2018-05-21T00:41:22.250Z,69.35
2018-05-21T00:41:53.442Z,69.41
2018-05-21T00:42:24.664Z,69.42
2018-05-21T00:42:55.874Z,69.46
2018-05-21T00:43:27.081Z,69.51
2018-05-21T00:43:58.284Z,69.47
2018-05-21T00:44:29.494Z,69.39
2018-05-21T00:45:00.724Z,69.48
2018-05-21T00:45:32.004Z,69.52
2018-05-21T00:46:03.221Z,69.33
2018-05-21T00:46:34.421Z,69.34
2018-05-21T00:47:05.647Z,69.13
2018-05-21T00:47:36.845Z,69.07
2018-05-21T00:48:08.061Z,69.00
2018-05-21T00:48:39.272Z,68.90
2018-05-21T00:49:10.486Z,68.85
2018-05-21T00:49:41.679Z,68.57
2018-05-21T00:50:12.889Z,68.41
2018-05-21T00:50:44.175Z,68.32
2018-05-21T00:51:15.395Z,68.32
2018-05-21T00:51:46.611Z,68.45
2018-05-21T00:52:17.818Z,68.56
2018-05-21T00:52:49.033Z,68.59
2018-05-21T00:53:20.236Z,68.58
2018-05-21T00:53:51.426Z,68.69
2018-05-21T00:54:22.632Z,68.89
2018-05-21T00:54:53.827Z,69.01
2018-05-21T00:55:25.055Z,68.97
2018-05-21T00:55:56.395Z,69.14
2018-05-21T00:56:27.606Z,69.08
2018-05-21T00:56:58.818Z,69.18
2018-05-21T00:57:30.031Z,69.20
2018-05-21T00:58:01.245Z,69.21
2018-05-21T00:58:32.461Z,69.10
2018-05-21T00:59:03.676Z,69.12
2018-05-21T00:59:34.894Z,69.10
2018-05-21T01:00:06.093Z,69.03
2018-05-21T01:00:37.301Z,69.01
2018-05-21T01:01:08.526Z,68.93
2018-05-21T01:01:39.740Z,68.78
2018-05-21T01:02:10.957Z,68.79
2018-05-21T01:02:42.164Z,68.64
2018-05-21T01:03:13.394Z,68.64
2018-05-21T01:03:44.597Z,68.38
2018-05-21T01:04:15.805Z,68.29
2018-05-21T01:04:47.035Z,68.25
2018-05-21T01:05:18.253Z,68.31
2018-05-21T01:05:49.497Z,68.37
2018-05-21T01:06:20.709Z,68.51
2018-05-21T01:06:51.919Z,68.67
2018-05-21T01:07:23.141Z,68.89
2018-05-21T01:07:54.352Z,69.11
2018-05-21T01:08:25.567Z,69.31
2018-05-21T01:08:56.834Z,69.44
2018-05-21T01:09:28.045Z,69.53
2018-05-21T01:09:59.253Z,69.58
2018-05-21T01:10:30.473Z,69.58
2018-05-21T01:11:01.680Z,69.79
2018-05-21T01:11:32.894Z,69.76
2018-05-21T01:12:04.121Z,69.69
2018-05-21T01:12:35.376Z,69.72
2018-05-21T01:13:06.603Z,69.82
2018-05-21T01:13:37.812Z,69.94
2018-05-21T01:14:09.040Z,69.94
2018-05-21T01:14:40.266Z,69.82
2018-05-21T01:15:11.477Z,69.84
2018-05-21T01:15:42.737Z,69.85
2018-05-21T01:16:13.938Z,69.89
2018-05-21T01:16:45.149Z,69.73
2018-05-21T01:17:16.411Z,69.70
2018-05-21T01:17:47.619Z,69.66
2018-05-21T01:18:18.969Z,69.69
2018-05-21T01:18:50.187Z,69.57
2018-05-21T01:19:21.409Z,69.61
2018-05-21T01:19:52.618Z,69.54
2018-05-21T01:20:23.835Z,69.40
2018-05-21T01:20:55.051Z,69.39
2018-05-21T01:21:26.261Z,69.45
2018-05-21T01:21:57.473Z,69.42
2018-05-21T01:22:28.693Z,69.37
2018-05-21T01:22:59.882Z,69.37
2018-05-21T01:23:31.116Z,69.07
2018-05-21T01:24:02.332Z,69.13
2018-05-21T01:24:33.543Z,69.16
2018-05-21T01:25:04.757Z,69.18
2018-05-21T01:25:35.974Z,69.20
2018-05-21T01:26:07.189Z,69.21
2018-05-21T01:26:38.396Z,69.05
2018-05-21T01:27:09.614Z,69.06
2018-05-21T01:27:40.825Z,69.16
2018-05-21T01:28:12.029Z,69.08
2018-05-21T01:28:43.272Z,69.11
2018-05-21T01:29:14.495Z,69.11
2018-05-21T01:29:45.719Z,69.15
2018-05-21T01:30:16.936Z,69.12
2018-05-21T01:30:48.150Z,69.14
2018-05-21T01:31:19.361Z,68.91
2018-05-21T01:31:50.577Z,68.74
2018-05-21T01:32:21.786Z,68.77
2018-05-21T01:32:53.049Z,68.80
2018-05-21T01:33:24.289Z,68.72
2018-05-21T01:33:55.555Z,68.58
2018-05-21T01:34:26.770Z,68.57
2018-05-21T01:34:58.170Z,68.41
2018-05-21T01:35:29.473Z,68.52
2018-05-21T01:36:00.785Z,68.52
2018-05-21T01:36:32.163Z,68.62
2018-05-21T01:37:03.471Z,68.65
2018-05-21T01:37:34.750Z,68.78
2018-05-21T01:38:06.240Z,68.82
2018-05-21T01:38:37.538Z,68.78
2018-05-21T01:39:09.031Z,68.94
2018-05-21T01:39:40.346Z,68.96
2018-05-21T01:40:11.649Z,69.12
2018-05-21T01:40:43.112Z,69.13
2018-05-21T01:41:14.435Z,69.16
2018-05-21T01:41:45.740Z,69.18
2018-05-21T01:42:16.985Z,69.21
2018-05-21T01:42:48.233Z,69.51
2018-05-21T01:43:19.446Z,69.54
2018-05-21T01:43:50.658Z,69.56
2018-05-21T01:44:21.886Z,69.60
2018-05-21T01:44:53.106Z,69.65
2018-05-21T01:45:24.319Z,69.65
2018-05-21T01:45:55.535Z,69.62
2018-05-21T01:46:26.781Z,69.80
2018-05-21T01:46:57.994Z,69.95
2018-05-21T01:47:29.249Z,70.05
2018-05-21T01:48:00.503Z,70.10
2018-05-21T01:48:31.708Z,70.09
2018-05-21T01:49:02.912Z,69.99
2018-05-21T01:49:34.124Z,69.96
2018-05-21T01:50:05.356Z,69.87
2018-05-21T01:50:36.560Z,69.83
2018-05-21T01:51:07.810Z,69.99
2018-05-21T01:51:39.039Z,70.08
2018-05-21T01:52:10.361Z,70.13
2018-05-21T01:52:41.570Z,69.93
2018-05-21T01:53:12.777Z,69.97
2018-05-21T01:53:43.993Z,69.86
2018-05-21T01:54:15.205Z,69.79
2018-05-21T01:54:46.450Z,69.93
2018-05-21T01:55:17.657Z,69.83
2018-05-21T01:55:48.888Z,69.89
2018-05-21T01:56:20.505Z,70.10
2018-05-21T01:56:51.717Z,70.08
2018-05-21T01:57:22.934Z,70.13
2018-05-21T01:57:54.167Z,70.18
2018-05-21T01:58:25.376Z,70.20
2018-05-21T01:58:56.589Z,70.27
2018-05-21T01:59:27.841Z,70.31
2018-05-21T01:59:59.043Z,70.68
2018-05-21T02:00:30.271Z,70.86
2018-05-21T02:01:01.544Z,70.87
2018-05-21T02:01:32.781Z,71.07
2018-05-21T02:02:04.003Z,71.05
2018-05-21T02:02:35.217Z,71.93
2018-05-21T02:03:07.337Z,71.36
2018-05-21T02:03:38.549Z,71.50
2018-05-21T02:04:09.775Z,71.81
2018-05-21T02:04:40.999Z,71.51
2018-05-21T02:05:12.225Z,71.49
2018-05-21T02:05:43.436Z,71.55
2018-05-21T02:06:14.709Z,71.69
2018-05-21T02:06:45.921Z,71.54
2018-05-21T02:07:17.133Z,71.70
2018-05-21T02:07:48.363Z,72.12
2018-05-21T02:08:19.616Z,72.52
2018-05-21T02:08:50.824Z,72.52
2018-05-21T02:09:22.033Z,72.40
2018-05-21T02:09:53.285Z,72.81
2018-05-21T02:10:24.510Z,72.71
2018-05-21T02:10:55.762Z,73.21
2018-05-21T02:11:27.013Z,73.44
2018-05-21T02:11:58.227Z,73.48
2018-05-21T02:12:29.434Z,73.76
2018-05-21T02:13:00.654Z,73.37
2018-05-21T02:13:31.870Z,73.43
2018-05-21T02:14:03.081Z,73.59
2018-05-21T02:14:34.299Z,73.89
2018-05-21T02:15:05.517Z,73.92
2018-05-21T02:15:36.725Z,73.35
2018-05-21T02:16:07.977Z,73.12
2018-05-21T02:16:39.199Z,73.20
2018-05-21T02:17:10.425Z,73.21
2018-05-21T02:17:41.678Z,73.10
2018-05-21T02:18:12.889Z,73.08
2018-05-21T02:18:44.115Z,72.65
2018-05-21T02:19:15.330Z,72.79
2018-05-21T02:19:46.547Z,72.99
2018-05-21T02:20:17.772Z,73.20
2018-05-21T02:20:48.983Z,73.22
2018-05-21T02:21:20.197Z,73.27
2018-05-21T02:21:51.412Z,73.22
2018-05-21T02:22:22.621Z,72.98
2018-05-21T02:22:53.967Z,73.03
2018-05-21T02:23:25.132Z,73.14
2018-05-21T02:23:56.343Z,73.15
2018-05-21T02:24:27.585Z,73.26
2018-05-21T02:24:58.792Z,73.13
2018-05-21T02:25:30.005Z,72.68
2018-05-21T02:26:01.219Z,72.66
2018-05-21T02:26:32.426Z,72.95
2018-05-21T02:27:03.751Z,73.13
2018-05-21T02:27:34.917Z,73.09
2018-05-21T02:28:06.175Z,72.92
2018-05-21T02:28:37.404Z,72.72
2018-05-21T02:29:08.618Z,72.61
2018-05-21T02:29:39.833Z,72.59
2018-05-21T02:30:11.053Z,72.53
2018-05-21T02:30:42.276Z,72.44
2018-05-21T02:31:13.493Z,72.34
2018-05-21T02:31:44.701Z,72.11
2018-05-21T02:32:15.958Z,72.06
2018-05-21T02:32:47.192Z,71.97
2018-05-21T02:33:18.421Z,71.99
2018-05-21T02:33:49.676Z,72.13
2018-05-21T02:34:20.935Z,72.04
2018-05-21T02:34:52.145Z,71.95
2018-05-21T02:35:23.348Z,71.63
2018-05-21T02:35:54.562Z,71.66
2018-05-21T02:36:25.770Z,71.68
2018-05-21T02:36:56.980Z,71.62
2018-05-21T02:37:28.191Z,71.58
2018-05-21T02:37:59.406Z,71.51
2018-05-21T02:38:30.637Z,71.37
2018-05-21T02:39:01.856Z,71.27
2018-05-21T02:39:33.121Z,70.93
2018-05-21T02:40:04.354Z,70.95
2018-05-21T02:40:35.556Z,71.07
2018-05-21T02:41:06.776Z,71.14
2018-05-21T02:41:37.992Z,71.37
2018-05-21T02:42:09.243Z,71.72
2018-05-21T02:42:40.478Z,72.23
2018-05-21T02:43:11.730Z,71.89
2018-05-21T02:43:42.948Z,71.69
2018-05-21T02:44:14.154Z,71.86
2018-05-21T02:44:45.367Z,72.33
2018-05-21T02:45:16.618Z,72.10
2018-05-21T02:45:47.845Z,71.92
2018-05-21T02:46:19.077Z,72.89
2018-05-21T02:46:50.287Z,72.40
2018-05-21T02:47:21.500Z,73.45
2018-05-21T02:47:52.715Z,73.58
2018-05-21T02:48:23.933Z,73.42
2018-05-21T02:48:55.147Z,73.73
2018-05-21T02:49:26.374Z,73.77
2018-05-21T02:49:57.623Z,74.31
2018-05-21T02:50:28.848Z,74.24
2018-05-21T02:51:00.068Z,74.04
2018-05-21T02:51:31.278Z,73.87
2018-05-21T02:52:02.499Z,73.79
2018-05-21T02:52:33.717Z,73.60
2018-05-21T02:53:04.922Z,73.51
2018-05-21T02:53:36.129Z,73.45
2018-05-21T02:54:07.356Z,73.06
2018-05-21T02:54:38.611Z,73.22
2018-05-21T02:55:09.822Z,72.56
2018-05-21T02:55:41.039Z,72.63
2018-05-21T02:56:12.256Z,73.11
2018-05-21T02:56:43.472Z,72.71
2018-05-21T02:57:14.685Z,72.61
2018-05-21T02:57:45.918Z,72.38
2018-05-21T02:58:17.124Z,72.15
2018-05-21T02:58:48.345Z,71.96
2018-05-21T02:59:19.561Z,72.05
2018-05-21T02:59:50.830Z,72.21
2018-05-21T03:00:22.045Z,72.18
2018-05-21T03:00:53.260Z,72.16
2018-05-21T03:01:24.469Z,72.18
2018-05-21T03:01:55.676Z,72.32
2018-05-21T03:02:26.894Z,72.44
2018-05-21T03:02:58.120Z,72.72
2018-05-21T03:03:29.352Z,72.60
2018-05-21T03:04:00.884Z,72.65
2018-05-21T03:04:32.222Z,72.75
2018-05-21T03:05:03.697Z,72.26
2018-05-21T03:05:35.964Z,72.48
2018-05-21T03:06:07.271Z,72.37
2018-05-21T03:06:38.560Z,72.39
2018-05-21T03:07:09.773Z,72.38
2018-05-21T03:07:41.525Z,72.31
2018-05-21T03:08:13.386Z,71.44
2018-05-21T03:08:45.312Z,71.42
2018-05-21T03:09:17.510Z,70.99
2018-05-21T03:09:49.934Z,70.82
2018-05-21T03:10:21.405Z,70.58
2018-05-21T03:10:52.742Z,70.50
2018-05-21T03:11:25.007Z,70.67
2018-05-21T03:11:57.242Z,70.58
2018-05-21T03:12:31.450Z,70.69
2018-05-21T03:13:02.715Z,70.31
2018-05-21T03:13:33.987Z,70.18
2018-05-21T03:14:05.637Z,70.06
2018-05-21T03:14:37.919Z,69.73
2018-05-21T03:15:10.803Z,69.23
2018-05-21T03:15:42.126Z,69.12
2018-05-21T03:16:13.736Z,69.00
2018-05-21T03:16:45.093Z,68.61
2018-05-21T03:17:16.760Z,68.71
2018-05-21T03:17:48.107Z,68.82
2018-05-21T03:18:19.539Z,68.89
2018-05-21T03:18:50.837Z,69.15
2018-05-21T03:19:22.168Z,69.46
2018-05-21T03:19:53.572Z,69.85
2018-05-21T03:20:25.073Z,70.04
2018-05-21T03:20:57.264Z,70.10
2018-05-21T03:21:29.505Z,70.08
2018-05-21T03:22:00.936Z,69.80
2018-05-21T03:22:32.357Z,69.63
2018-05-21T03:23:03.717Z,69.50
2018-05-21T03:23:35.103Z,69.26
2018-05-21T03:24:07.888Z,68.94
2018-05-21T03:24:39.210Z,68.62
2018-05-21T03:25:10.842Z,68.21
2018-05-21T03:25:42.279Z,67.85
2018-05-21T03:26:13.587Z,67.50
2018-05-21T03:26:44.892Z,67.04
2018-05-21T03:27:16.957Z,66.60
2018-05-21T03:27:50.725Z,66.19
2018-05-21T03:28:22.944Z,65.79
2018-05-21T03:28:54.176Z,65.56
2018-05-21T03:29:25.403Z,65.19
2018-05-21T03:29:56.621Z,65.31
2018-05-21T03:30:27.874Z,65.44
2018-05-21T03:30:59.093Z,65.45
2018-05-21T03:31:30.310Z,65.57
2018-05-21T03:32:01.523Z,65.51
2018-05-21T03:32:32.732Z,65.52
2018-05-21T03:33:03.955Z,65.78
2018-05-21T03:33:35.174Z,65.87
2018-05-21T03:34:06.393Z,66.13
2018-05-21T03:34:37.615Z,66.36
2018-05-21T03:35:08.829Z,66.39
2018-05-21T03:35:40.090Z,66.59
2018-05-21T03:36:11.305Z,66.67
2018-05-21T03:36:42.528Z,66.84
2018-05-21T03:37:13.742Z,66.96
2018-05-21T03:37:44.967Z,67.11
2018-05-21T03:38:16.182Z,67.26
2018-05-21T03:38:47.410Z,67.42
2018-05-21T03:39:18.671Z,67.48
2018-05-21T03:39:49.888Z,67.48
2018-05-21T03:40:21.148Z,67.51
2018-05-21T03:40:52.370Z,67.59
2018-05-21T03:41:23.626Z,67.71
2018-05-21T03:41:54.848Z,67.70
2018-05-21T03:42:26.062Z,67.52
2018-05-21T03:42:57.291Z,67.55
2018-05-21T03:43:28.538Z,67.44
2018-05-21T03:43:59.753Z,67.62
2018-05-21T03:44:30.964Z,67.97
2018-05-21T03:45:02.176Z,68.20
2018-05-21T03:45:33.388Z,68.52
2018-05-21T03:46:04.649Z,68.64
2018-05-21T03:46:35.870Z,68.73
2018-05-21T03:47:07.080Z,68.77
2018-05-21T03:47:38.288Z,68.90
2018-05-21T03:48:09.504Z,68.98
2018-05-21T03:48:40.721Z,69.08
2018-05-21T03:49:11.933Z,69.02
2018-05-21T03:49:43.159Z,68.92
2018-05-21T03:50:14.386Z,69.08
2018-05-21T03:50:45.619Z,68.95
2018-05-21T03:51:16.893Z,69.14
2018-05-21T03:51:48.126Z,69.17
2018-05-21T03:52:19.353Z,69.25
2018-05-21T03:52:50.580Z,69.28
2018-05-21T03:53:21.784Z,69.27
2018-05-21T03:53:52.997Z,69.31
2018-05-21T03:54:24.252Z,69.37
2018-05-21T03:54:55.474Z,69.05
2018-05-21T03:55:26.690Z,69.00
2018-05-21T03:55:57.904Z,69.18
2018-05-21T03:56:29.117Z,69.37
2018-05-21T03:57:00.372Z,69.17
2018-05-21T03:57:31.591Z,69.65
2018-05-21T03:58:02.810Z,69.14
2018-05-21T03:58:34.011Z,69.06
2018-05-21T03:59:05.263Z,68.80
2018-05-21T03:59:36.478Z,68.70
2018-05-21T04:00:07.691Z,68.70
2018-05-21T04:00:38.923Z,68.62
2018-05-21T04:01:10.144Z,68.44
2018-05-21T04:01:41.365Z,68.41
2018-05-21T04:02:12.582Z,68.57
2018-05-21T04:02:43.801Z,68.71
2018-05-21T04:03:15.036Z,68.81
2018-05-21T04:03:46.269Z,68.81
2018-05-21T04:04:17.527Z,68.93
2018-05-21T04:04:48.742Z,69.02
2018-05-21T04:05:19.952Z,69.12
2018-05-21T04:05:51.157Z,69.12
2018-05-21T04:06:22.408Z,69.07
2018-05-21T04:06:53.624Z,69.09
2018-05-21T04:07:24.834Z,69.06
2018-05-21T04:07:56.051Z,69.04
2018-05-21T04:08:27.353Z,69.01
2018-05-21T04:08:58.532Z,68.87
2018-05-21T04:09:29.786Z,68.96
2018-05-21T04:10:01.010Z,69.24
2018-05-21T04:10:32.223Z,69.41
2018-05-21T04:11:03.433Z,69.48
2018-05-21T04:11:34.640Z,69.53
2018-05-21T04:12:05.850Z,69.39
2018-05-21T04:12:37.073Z,69.55
2018-05-21T04:13:08.283Z,69.61
2018-05-21T04:13:39.492Z,69.57
2018-05-21T04:14:10.710Z,69.65
2018-05-21T04:14:41.957Z,69.79
2018-05-21T04:15:13.169Z,69.94
2018-05-21T04:15:44.382Z,70.08
2018-05-21T04:16:15.676Z,70.22
2018-05-21T04:16:46.994Z,70.38
2018-05-21T04:17:22.477Z,70.70
2018-05-21T04:17:53.800Z,70.81
2018-05-21T04:18:25.244Z,71.05
2018-05-21T04:18:57.077Z,71.03
2018-05-21T04:19:28.419Z,70.96
2018-05-21T04:19:59.669Z,71.07
2018-05-21T04:20:30.908Z,70.90
2018-05-21T04:21:02.123Z,70.72
2018-05-21T04:21:33.364Z,70.53
2018-05-21T04:22:04.658Z,70.44
2018-05-21T04:22:36.018Z,70.03
2018-05-21T04:23:07.312Z,70.29
2018-05-21T04:23:38.718Z,70.39
2018-05-21T04:24:10.035Z,70.34
2018-05-21T04:24:41.633Z,70.15
2018-05-21T04:25:13.024Z,70.10
2018-05-21T04:25:44.330Z,69.95
2018-05-21T04:26:15.653Z,70.00
2018-05-21T04:26:46.993Z,69.87
2018-05-21T04:27:18.551Z,69.80
2018-05-21T04:27:49.835Z,69.60
2018-05-21T04:28:21.128Z,69.70
2018-05-21T04:28:52.537Z,69.73
2018-05-21T04:29:23.927Z,69.76
2018-05-21T04:29:57.078Z,69.61
2018-05-21T04:30:28.318Z,69.55
2018-05-21T04:30:59.531Z,69.66
2018-05-21T04:31:30.748Z,69.68
2018-05-21T04:32:01.957Z,69.93
2018-05-21T04:32:33.172Z,70.00
2018-05-21T04:33:04.401Z,70.02
2018-05-21T04:33:35.625Z,69.75
2018-05-21T04:34:06.830Z,69.73
2018-05-21T04:34:38.042Z,70.03
2018-05-21T04:35:09.285Z,70.04
2018-05-21T04:35:40.506Z,69.90
2018-05-21T04:36:11.728Z,69.97
2018-05-21T04:36:42.955Z,70.04
2018-05-21T04:37:14.175Z,70.11
2018-05-21T04:37:45.387Z,70.09
2018-05-21T04:38:16.610Z,70.32
2018-05-21T04:38:47.824Z,70.32
2018-05-21T04:39:19.037Z,70.70
2018-05-21T04:39:50.257Z,70.17
2018-05-21T04:40:21.512Z,69.79
2018-05-21T04:40:52.726Z,70.24
2018-05-21T04:41:23.942Z,70.49
2018-05-21T04:41:55.211Z,70.48
2018-05-21T04:42:26.435Z,69.77
2018-05-21T04:42:57.661Z,70.12
2018-05-21T04:43:30.095Z,70.40
2018-05-21T04:44:01.367Z,70.43
2018-05-21T04:44:32.716Z,71.29
2018-05-21T04:45:04.404Z,70.17
2018-05-21T04:45:35.803Z,69.73
2018-05-21T04:46:43.413Z,69.34
2018-05-21T04:47:14.784Z,69.79
2018-05-21T04:47:46.141Z,70.12
2018-05-21T04:48:17.458Z,69.43
2018-05-21T04:48:49.579Z,69.40
2018-05-21T04:49:20.937Z,69.32
2018-05-21T04:49:52.318Z,69.80
2018-05-21T04:50:23.603Z,69.86
2018-05-21T04:50:54.936Z,69.60
2018-05-21T04:51:26.194Z,70.62
2018-05-21T04:51:57.862Z,70.85
2018-05-21T04:52:29.490Z,71.15
2018-05-21T04:53:00.805Z,70.11
2018-05-21T04:53:32.785Z,70.02
2018-05-21T04:54:04.086Z,69.35
2018-05-21T04:54:35.346Z,68.70
2018-05-21T04:55:06.550Z,68.62
2018-05-21T04:55:37.769Z,68.23
2018-05-21T04:56:08.985Z,68.52
2018-05-21T04:56:40.197Z,68.85
2018-05-21T04:57:11.429Z,68.76
2018-05-21T04:57:42.637Z,69.35
2018-05-21T04:58:13.844Z,69.38
2018-05-21T04:58:45.066Z,69.23
2018-05-21T04:59:16.282Z,68.00
2018-05-21T04:59:47.541Z,67.54
2018-05-21T05:00:18.778Z,68.00
2018-05-21T05:00:50.008Z,68.16
2018-05-21T05:01:21.270Z,70.19
2018-05-21T05:01:52.488Z,70.03
2018-05-21T05:02:23.719Z,69.59
2018-05-21T05:02:54.939Z,69.02
2018-05-21T05:03:26.165Z,68.80
2018-05-21T05:03:57.385Z,69.66
2018-05-21T05:04:28.604Z,67.88
2018-05-21T05:04:59.808Z,68.62
2018-05-21T05:05:31.029Z,67.95
2018-05-21T05:06:02.256Z,67.77
2018-05-21T05:06:33.533Z,69.11
2018-05-21T05:07:04.767Z,67.76
2018-05-21T05:07:36.021Z,66.98
2018-05-21T05:08:07.238Z,67.58
2018-05-21T05:08:38.461Z,67.93
2018-05-21T05:09:09.687Z,67.68
2018-05-21T05:09:40.900Z,67.87
2018-05-21T05:10:12.121Z,67.69
2018-05-21T05:10:43.364Z,67.21
2018-05-21T05:11:14.592Z,65.30
2018-05-21T05:11:45.853Z,65.30
2018-05-21T05:12:17.121Z,66.69
2018-05-21T05:12:48.340Z,68.58
2018-05-21T05:13:19.562Z,68.37
2018-05-21T05:13:50.785Z,68.92
2018-05-21T05:14:22.059Z,68.90
2018-05-21T05:14:53.258Z,68.50
2018-05-21T05:15:24.480Z,67.16
2018-05-21T05:15:55.702Z,67.64
2018-05-21T05:16:26.925Z,67.84
2018-05-21T05:16:58.137Z,67.64
2018-05-21T05:17:29.392Z,67.44
2018-05-21T05:18:00.622Z,67.18
2018-05-21T05:18:31.837Z,66.52
2018-05-21T05:19:03.061Z,66.20
2018-05-21T05:19:34.290Z,67.16
2018-05-21T05:20:05.574Z,65.81
2018-05-21T05:20:36.809Z,65.69
2018-05-21T05:21:08.061Z,66.26
2018-05-21T05:21:39.278Z,66.12
2018-05-21T05:22:10.498Z,65.12
2018-05-21T05:22:41.720Z,64.38
2018-05-21T05:23:14.353Z,64.86
2018-05-21T05:23:45.604Z,64.86
2018-05-21T05:24:16.822Z,64.77
2018-05-21T05:24:48.057Z,64.59
2018-05-21T05:25:19.277Z,64.47
2018-05-21T05:25:50.502Z,64.66
2018-05-21T05:26:21.729Z,64.29
2018-05-21T05:26:52.943Z,64.21
2018-05-21T05:27:24.168Z,64.97
2018-05-21T05:27:55.396Z,65.30
2018-05-21T05:28:26.657Z,65.19
2018-05-21T05:28:57.862Z,65.27
2018-05-21T05:29:29.098Z,65.06
2018-05-21T05:30:00.325Z,64.34
2018-05-21T05:30:31.563Z,64.85
2018-05-21T05:31:02.763Z,64.88
2018-05-21T05:31:33.973Z,64.87
2018-05-21T05:32:05.217Z,65.86
2018-05-21T05:32:36.436Z,65.67
2018-05-21T05:33:07.658Z,65.44
2018-05-21T05:33:38.929Z,64.43
2018-05-21T05:34:10.150Z,64.44
2018-05-21T05:34:41.364Z,63.76
2018-05-21T05:35:12.599Z,63.87
2018-05-21T05:35:43.825Z,64.52
2018-05-21T05:36:15.073Z,63.63
2018-05-21T05:36:46.297Z,63.82
2018-05-21T05:37:17.572Z,64.51
2018-05-21T05:37:48.793Z,64.80
2018-05-21T05:38:20.014Z,65.07
2018-05-21T05:38:51.231Z,65.03
2018-05-21T05:39:22.467Z,64.93
2018-05-21T05:39:53.719Z,64.71
2018-05-21T05:40:24.962Z,64.28
2018-05-21T05:40:56.218Z,64.16
2018-05-21T05:41:27.447Z,64.05
2018-05-21T05:41:58.742Z,64.14
2018-05-21T05:42:29.932Z,63.58
2018-05-21T05:43:01.169Z,63.39
2018-05-21T05:43:32.412Z,63.20
2018-05-21T05:44:03.634Z,63.45
2018-05-21T05:44:34.920Z,63.33
2018-05-21T05:45:06.141Z,63.23
2018-05-21T05:45:37.349Z,63.13
2018-05-21T05:46:08.573Z,62.98
2018-05-21T05:46:39.826Z,62.74
2018-05-21T05:47:11.046Z,62.60
2018-05-21T05:47:42.281Z,62.85
2018-05-21T05:48:13.492Z,63.06
2018-05-21T05:48:44.779Z,63.15
2018-05-21T05:49:15.976Z,62.71
2018-05-21T05:49:47.237Z,62.75
2018-05-21T05:50:18.509Z,62.82
2018-05-21T05:50:49.738Z,62.99
2018-05-21T05:51:20.995Z,63.28
2018-05-21T05:51:52.237Z,63.46
2018-05-21T05:52:23.465Z,63.34
2018-05-21T05:52:54.707Z,63.18
2018-05-21T05:53:25.913Z,63.30
2018-05-21T05:53:57.142Z,63.48
2018-05-21T05:54:28.366Z,63.42
2018-05-21T05:54:59.601Z,63.37
2018-05-21T05:55:30.819Z,63.05
2018-05-21T05:56:02.033Z,63.05
2018-05-21T05:56:33.307Z,63.15
2018-05-21T05:57:04.976Z,63.12
2018-05-21T05:57:36.314Z,63.17
2018-05-21T05:58:07.576Z,62.52
2018-05-21T05:58:38.827Z,62.64
2018-05-21T05:59:10.108Z,62.56
2018-05-21T05:59:41.448Z,62.47
2018-05-21T06:00:12.688Z,62.57
2018-05-21T06:00:43.908Z,62.39
2018-05-21T06:01:15.964Z,62.09
2018-05-21T06:01:47.264Z,62.06
2018-05-21T06:02:18.594Z,62.21
2018-05-21T06:02:49.956Z,62.34
2018-05-21T06:03:24.775Z,62.45
2018-05-21T06:03:56.044Z,62.30
2018-05-21T06:04:27.290Z,62.38
2018-05-21T06:04:58.589Z,62.28
2018-05-21T06:05:29.848Z,62.22
2018-05-21T06:06:01.133Z,62.29
2018-05-21T06:06:32.385Z,62.35
2018-05-21T06:07:03.669Z,62.57
2018-05-21T06:07:34.900Z,62.36
2018-05-21T06:08:06.225Z,62.24
2018-05-21T06:08:37.626Z,62.10
2018-05-21T06:09:08.912Z,62.06
2018-05-21T06:09:41.429Z,61.48
2018-05-21T06:10:12.866Z,61.23
2018-05-21T06:10:44.085Z,61.22
2018-05-21T06:11:15.916Z,60.68
2018-05-21T06:11:47.146Z,60.59
2018-05-21T06:12:18.452Z,60.56
2018-05-21T06:12:49.688Z,60.49
2018-05-21T06:13:20.918Z,60.91
2018-05-21T06:13:52.164Z,61.37
2018-05-21T06:14:23.416Z,61.63
2018-05-21T06:14:54.653Z,61.50
2018-05-21T06:15:25.885Z,61.52
2018-05-21T06:15:57.127Z,61.57
2018-05-21T06:16:28.359Z,61.71
2018-05-21T06:16:59.595Z,61.56
2018-05-21T06:17:30.881Z,61.30
2018-05-21T06:18:02.146Z,61.18
2018-05-21T06:18:33.432Z,60.94
2018-05-21T06:19:04.719Z,60.95
2018-05-21T06:19:39.526Z,61.15
2018-05-21T06:20:10.888Z,61.42
2018-05-21T06:20:42.201Z,61.25
2018-05-21T06:21:13.501Z,61.20
2018-05-21T06:21:44.776Z,61.17
2018-05-21T06:22:16.081Z,61.15
2018-05-21T06:22:47.358Z,60.77
2018-05-21T06:23:18.596Z,60.71
2018-05-21T06:23:49.795Z,60.58
2018-05-21T06:24:21.085Z,60.42
2018-05-21T06:24:52.422Z,60.37
2018-05-21T06:25:24.192Z,59.95
2018-05-21T06:25:55.518Z,59.59
2018-05-21T06:26:26.751Z,59.55
2018-05-21T06:26:58.017Z,59.65
2018-05-21T06:27:29.236Z,59.81
2018-05-21T06:28:00.458Z,59.95
2018-05-21T06:28:31.709Z,60.04
2018-05-21T06:29:02.934Z,60.02
2018-05-21T06:29:34.161Z,59.77
2018-05-21T06:30:05.414Z,60.06
2018-05-21T06:30:36.647Z,60.33
2018-05-21T06:31:07.870Z,60.45
2018-05-21T06:31:39.094Z,60.53
2018-05-21T06:32:10.337Z,60.66
2018-05-21T06:32:41.576Z,60.38
2018-05-21T06:33:12.775Z,60.34
2018-05-21T06:33:43.991Z,60.51
2018-05-21T06:34:15.212Z,60.30
2018-05-21T06:34:46.538Z,60.21
2018-05-21T06:35:17.825Z,60.14
2018-05-21T06:35:49.062Z,60.30
2018-05-21T06:36:20.277Z,60.20
2018-05-21T06:36:51.488Z,60.01
2018-05-21T06:37:22.721Z,59.81
2018-05-21T06:37:53.934Z,59.82
2018-05-21T06:38:25.177Z,59.63
2018-05-21T06:38:56.393Z,59.79
2018-05-21T06:39:27.610Z,59.45
2018-05-21T06:39:58.858Z,59.45
2018-05-21T06:40:30.117Z,59.45
2018-05-21T06:41:01.395Z,59.70
2018-05-21T06:41:32.643Z,59.56
2018-05-21T06:42:03.869Z,59.31
2018-05-21T06:42:35.128Z,59.29
2018-05-21T06:43:06.364Z,59.36
2018-05-21T06:43:37.588Z,59.07
2018-05-21T06:44:08.829Z,58.86